sensor_id;sensor_type;location;lat;lon;timestamp;pressure;altitude;pressure_sealevel;temperature;humidity
5879;BME280;2965;42.640;23.370;2023-03-16T05:02:06;93806.03;;;0.78;100.00
5879;BME280;2965;42.640;23.370;2023-03-16T05:04:32;93809.28;;;0.70;100.00
5879;BME280;2965;42.640;23.370;2023-03-16T05:06:58;93804.28;;;0.68;100.00
5879;BME280;2965;42.640;23.370;2023-03-16T05:09:24;93796.56;;;0.68;100.00
5879;BME280;2965;42.640;23.370;2023-03-16T05:11:49;93809.16;;;0.71;100.00
5879;BME280;2965;42.640;23.370;2023-03-16T05:14:15;93810.09;;;0.70;100.00
5879;BME280;2965;42.640;23.370;2023-03-16T05:16:40;93810.09;;;0.70;100.00
5879;BME280;2965;42.640;23.370;2023-03-16T05:19:06;93825.00;;;0.77;100.00
5879;BME280;2965;42.640;23.370;2023-03-16T05:21:31;93820.50;;;0.79;100.00
5879;BME280;2965;42.640;23.370;2023-03-16T05:23:59;93814.97;;;0.73;100.00
5879;BME280;2965;42.640;23.370;2023-03-16T05:26:25;93826.88;;;0.74;100.00
5879;BME280;2965;42.640;23.370;2023-03-16T05:28:50;93826.88;;;0.74;100.00
5879;BME280;2965;42.640;23.370;2023-03-16T05:31:16;93839.25;;;0.71;100.00
5879;BME280;2965;42.640;23.370;2023-03-16T05:33:41;93833.69;;;0.75;100.00
5879;BME280;2965;42.640;23.370;2023-03-16T05:36:09;93833.09;;;0.82;100.00
5879;BME280;2965;42.640;23.370;2023-03-16T05:38:34;93841.78;;;0.81;100.00
5879;BME280;2965;42.640;23.370;2023-03-16T05:41:01;93842.44;;;0.83;100.00
5879;BME280;2965;42.640;23.370;2023-03-16T05:43:29;93843.41;;;0.82;100.00
5879;BME280;2965;42.640;23.370;2023-03-16T05:45:54;93845.59;;;0.77;100.00
5879;BME280;2965;42.640;23.370;2023-03-16T05:48:20;93848.81;;;0.79;100.00
5879;BME280;2965;42.640;23.370;2023-03-16T05:50:46;93844.53;;;0.69;100.00
5879;BME280;2965;42.640;23.370;2023-03-16T05:53:12;93852.38;;;0.78;100.00
5879;BME280;2965;42.640;23.370;2023-03-16T05:55:39;93851.03;;;0.73;100.00
5879;BME280;2965;42.640;23.370;2023-03-16T05:58:05;93864.84;;;0.72;100.00
5879;BME280;2965;42.640;23.370;2023-03-16T06:00:31;93852.94;;;0.71;100.00
5879;BME280;2965;42.640;23.370;2023-03-16T06:02:56;93859.97;;;0.69;100.00
5879;BME280;2965;42.640;23.370;2023-03-16T06:05:22;93868.91;;;0.65;100.00
5879;BME280;2965;42.640;23.370;2023-03-16T06:07:49;93879.78;;;0.59;100.00
5879;BME280;2965;42.640;23.370;2023-03-16T06:10:15;93874.59;;;0.69;100.00
5879;BME280;2965;42.640;23.370;2023-03-16T06:12:41;93886.81;;;0.67;100.00
5879;BME280;2965;42.640;23.370;2023-03-16T06:15:08;93875.03;;;0.64;100.00
5879;BME280;2965;42.640;23.370;2023-03-16T06:17:34;93883.03;;;0.71;100.00
5879;BME280;2965;42.640;23.370;2023-03-16T06:20:00;93881.91;;;0.73;100.00
5879;BME280;2965;42.640;23.370;2023-03-16T06:22:26;93881.34;;;0.80;100.00
5879;BME280;2965;42.640;23.370;2023-03-16T06:24:52;93898.72;;;0.78;100.00
5879;BME280;2965;42.640;23.370;2023-03-16T06:27:18;93895.06;;;0.80;100.00
5879;BME280;2965;42.640;23.370;2023-03-16T06:29:45;93901.94;;;0.80;100.00
5879;BME280;2965;42.640;23.370;2023-03-16T06:32:11;93895.28;;;0.87;100.00
5879;BME280;2965;42.640;23.370;2023-03-16T06:34:36;93905.75;;;0.85;100.00
5879;BME280;2965;42.640;23.370;2023-03-16T06:37:02;93912.38;;;0.88;100.00
5879;BME280;2965;42.640;23.370;2023-03-16T06:39:28;93907.91;;;0.90;100.00
5879;BME280;2965;42.640;23.370;2023-03-16T06:41:53;93916.97;;;0.94;100.00
5879;BME280;2965;42.640;23.370;2023-03-16T06:44:19;93923.31;;;0.99;100.00
5879;BME280;2965;42.640;23.370;2023-03-16T06:46:45;93917.63;;;0.96;100.00
5879;BME280;2965;42.640;23.370;2023-03-16T06:49:10;93937.41;;;1.05;100.00
5879;BME280;2965;42.640;23.370;2023-03-16T06:51:35;93936.88;;;1.01;100.00
5879;BME280;2965;42.640;23.370;2023-03-16T06:54:01;93932.56;;;1.02;100.00
5879;BME280;2965;42.640;23.370;2023-03-16T06:56:26;93942.69;;;1.13;100.00
5879;BME280;2965;42.640;23.370;2023-03-16T06:58:52;93939.59;;;1.00;100.00
5879;BME280;2965;42.640;23.370;2023-03-16T07:01:17;93953.66;;;1.06;100.00
5879;BME280;2965;42.640;23.370;2023-03-16T07:03:43;93943.91;;;1.09;100.00
5879;BME280;2965;42.640;23.370;2023-03-16T07:06:08;93963.56;;;1.10;100.00
5879;BME280;2965;42.640;23.370;2023-03-16T07:08:34;93968.81;;;1.18;100.00
5879;BME280;2965;42.640;23.370;2023-03-16T07:11:00;93963.41;;;1.21;100.00
5879;BME280;2965;42.640;23.370;2023-03-16T07:13:25;93969.63;;;1.29;100.00
5879;BME280;2965;42.640;23.370;2023-03-16T07:15:51;93978.03;;;1.31;100.00
5879;BME280;2965;42.640;23.370;2023-03-16T07:18:17;93966.63;;;1.23;100.00
5879;BME280;2965;42.640;23.370;2023-03-16T07:20:42;93984.16;;;1.20;100.00
5879;BME280;2965;42.640;23.370;2023-03-16T07:23:08;93992.56;;;1.22;100.00
5879;BME280;2965;42.640;23.370;2023-03-16T07:25:33;93984.56;;;1.25;100.00
5879;BME280;2965;42.640;23.370;2023-03-16T07:27:59;93985.53;;;1.24;100.00
5879;BME280;2965;42.640;23.370;2023-03-16T07:30:24;93986.31;;;1.24;100.00
5879;BME280;2965;42.640;23.370;2023-03-16T07:32:50;93987.00;;;1.26;100.00
5879;BME280;2965;42.640;23.370;2023-03-16T07:35:16;93999.72;;;1.28;100.00
5879;BME280;2965;42.640;23.370;2023-03-16T07:37:42;93997.56;;;1.23;100.00
5879;BME280;2965;42.640;23.370;2023-03-16T07:40:08;93996.31;;;1.37;100.00
5879;BME280;2965;42.640;23.370;2023-03-16T07:42:34;94000.81;;;1.35;100.00
5879;BME280;2965;42.640;23.370;2023-03-16T07:45:00;93992.94;;;1.27;100.00
5879;BME280;2965;42.640;23.370;2023-03-16T07:47:26;93991.69;;;1.41;100.00
5879;BME280;2965;42.640;23.370;2023-03-16T07:49:52;93996.41;;;1.45;100.00
5879;BME280;2965;42.640;23.370;2023-03-16T07:52:18;93995.91;;;1.42;100.00
5879;BME280;2965;42.640;23.370;2023-03-16T07:54:43;94001.84;;;1.52;100.00
5879;BME280;2965;42.640;23.370;2023-03-16T07:57:09;94004.81;;;1.57;100.00
5879;BME280;2965;42.640;23.370;2023-03-16T07:59:34;94021.34;;;1.64;100.00
5879;BME280;2965;42.640;23.370;2023-03-16T08:01:59;94013.19;;;1.59;100.00
5879;BME280;2965;42.640;23.370;2023-03-16T08:04:25;94001.75;;;1.71;100.00
5879;BME280;2965;42.640;23.370;2023-03-16T08:06:50;94015.53;;;1.90;100.00
5879;BME280;2965;42.640;23.370;2023-03-16T08:09:25;94018.78;;;1.92;100.00
5879;BME280;2965;42.640;23.370;2023-03-16T08:11:50;94021.16;;;2.03;100.00
5879;BME280;2965;42.640;23.370;2023-03-16T08:14:15;94023.09;;;2.01;100.00
5879;BME280;2965;42.640;23.370;2023-03-16T08:16:41;94031.47;;;2.03;100.00
5879;BME280;2965;42.640;23.370;2023-03-16T08:19:06;94032.16;;;2.05;100.00
5879;BME280;2965;42.640;23.370;2023-03-16T08:21:32;94029.59;;;2.05;100.00
5879;BME280;2965;42.640;23.370;2023-03-16T08:23:58;94041.25;;;2.09;100.00
5879;BME280;2965;42.640;23.370;2023-03-16T08:26:23;94038.28;;;2.04;100.00
5879;BME280;2965;42.640;23.370;2023-03-16T08:28:51;94030.16;;;1.99;100.00
5879;BME280;2965;42.640;23.370;2023-03-16T08:31:17;94046.06;;;1.94;100.00
5879;BME280;2965;42.640;23.370;2023-03-16T08:33:44;94038.19;;;1.96;100.00
5879;BME280;2965;42.640;23.370;2023-03-16T08:36:12;94049.75;;;1.92;100.00
5879;BME280;2965;42.640;23.370;2023-03-16T08:38:39;94048.09;;;2.00;100.00
5879;BME280;2965;42.640;23.370;2023-03-16T08:41:05;94040.88;;;2.04;100.00
5879;BME280;2965;42.640;23.370;2023-03-16T08:43:31;94045.56;;;2.18;100.00
5879;BME280;2965;42.640;23.370;2023-03-16T08:45:57;94047.97;;;2.20;100.00
5879;BME280;2965;42.640;23.370;2023-03-16T08:48:24;94059.09;;;2.20;100.00
5879;BME280;2965;42.640;23.370;2023-03-16T08:50:49;94064.19;;;2.40;100.00
5879;BME280;2965;42.640;23.370;2023-03-16T08:53:16;94065.47;;;2.53;100.00
5879;BME280;2965;42.640;23.370;2023-03-16T08:55:41;94062.78;;;2.45;100.00
5879;BME280;2965;42.640;23.370;2023-03-16T08:58:08;94074.97;;;2.53;100.00
5879;BME280;2965;42.640;23.370;2023-03-16T09:00:34;94081.28;;;2.41;100.00
5879;BME280;2965;42.640;23.370;2023-03-16T09:03:00;94077.09;;;2.40;100.00
5879;BME280;2965;42.640;23.370;2023-03-16T09:05:27;94078.94;;;2.47;100.00
5879;BME280;2965;42.640;23.370;2023-03-16T09:07:52;94083.97;;;2.49;100.00
5879;BME280;2965;42.640;23.370;2023-03-16T09:10:18;94074.75;;;2.64;100.00
5879;BME280;2965;42.640;23.370;2023-03-16T09:12:46;94086.66;;;2.57;100.00
5879;BME280;2965;42.640;23.370;2023-03-16T09:15:12;94090.47;;;2.53;100.00
5879;BME280;2965;42.640;23.370;2023-03-16T09:17:38;94094.00;;;2.52;100.00
5879;BME280;2965;42.640;23.370;2023-03-16T09:20:06;94097.53;;;2.51;100.00
5879;BME280;2965;42.640;23.370;2023-03-16T09:22:34;94097.06;;;2.38;100.00
5879;BME280;2965;42.640;23.370;2023-03-16T09:25:00;94099.00;;;2.36;100.00
5879;BME280;2965;42.640;23.370;2023-03-16T09:27:26;94089.84;;;2.41;100.00
5879;BME280;2965;42.640;23.370;2023-03-16T09:29:51;94101.19;;;2.58;100.00
5879;BME280;2965;42.640;23.370;2023-03-16T09:32:19;94104.31;;;2.52;100.00
5879;BME280;2965;42.640;23.370;2023-03-16T09:34:45;94097.53;;;2.51;100.00
5879;BME280;2965;42.640;23.370;2023-03-16T09:37:11;94094.00;;;2.52;100.00
5879;BME280;2965;42.640;23.370;2023-03-16T09:39:36;94089.41;;;2.46;100.00
5879;BME280;2965;42.640;23.370;2023-03-16T09:47:12;94086.94;;;2.54;100.00
5879;BME280;2965;42.640;23.370;2023-03-16T09:49:47;94102.53;;;2.62;100.00
5879;BME280;2965;42.640;23.370;2023-03-16T09:55:06;94100.97;;;2.69;100.00
5879;BME280;2965;42.640;23.370;2023-03-16T09:57:41;94100.22;;;2.59;100.00
5879;BME280;2965;42.640;23.370;2023-03-16T10:05:23;94093.56;;;2.57;100.00
5879;BME280;2965;42.640;23.370;2023-03-16T10:08:11;94100.50;;;2.56;100.00
5879;BME280;2965;42.640;23.370;2023-03-16T10:13:23;94110.94;;;2.37;100.00
5879;BME280;2965;42.640;23.370;2023-03-16T10:15:52;94105.25;;;2.33;100.00
5879;BME280;2965;42.640;23.370;2023-03-16T10:18:25;94112.50;;;2.47;100.00
5879;BME280;2965;42.640;23.370;2023-03-16T10:20:53;94102.22;;;2.38;100.00
5879;BME280;2965;42.640;23.370;2023-03-16T10:23:22;94115.81;;;2.40;100.00
5879;BME280;2965;42.640;23.370;2023-03-16T10:25:54;94100.81;;;2.53;100.00
5879;BME280;2965;42.640;23.370;2023-03-16T10:28:22;94096.97;;;2.57;100.00
5879;BME280;2965;42.640;23.370;2023-03-16T10:30:50;94106.72;;;2.63;100.00
5879;BME280;2965;42.640;23.370;2023-03-16T10:35:55;94091.22;;;2.63;100.00
5879;BME280;2965;42.640;23.370;2023-03-16T10:40:55;94107.78;;;2.70;100.00
5879;BME280;2965;42.640;23.370;2023-03-16T10:43:22;94105.84;;;2.72;100.00
5879;BME280;2965;42.640;23.370;2023-03-16T10:45:48;94107.47;;;2.73;100.00
5879;BME280;2965;42.640;23.370;2023-03-16T10:48:17;94105.25;;;2.78;100.00
5879;BME280;2965;42.640;23.370;2023-03-16T10:50:49;94105.84;;;2.72;100.00
5879;BME280;2965;42.640;23.370;2023-03-16T10:53:18;94108.72;;;2.69;100.00
5879;BME280;2965;42.640;23.370;2023-03-16T10:55:46;94102.31;;;2.73;100.00
5879;BME280;2965;42.640;23.370;2023-03-16T10:58:22;94102.03;;;2.76;100.00
5879;BME280;2965;42.640;23.370;2023-03-16T11:00:49;94099.22;;;2.88;100.00
5879;BME280;2965;42.640;23.370;2023-03-16T11:06:01;94112.66;;;3.09;100.00
5879;BME280;2965;42.640;23.370;2023-03-16T11:08:36;94104.69;;;3.20;100.00
5879;BME280;2965;42.640;23.370;2023-03-16T11:11:17;94114.59;;;3.07;100.00
5879;BME280;2965;42.640;23.370;2023-03-16T11:13:46;94113.91;;;3.05;100.00
5879;BME280;2965;42.640;23.370;2023-03-16T11:18:45;94120.66;;;2.98;100.00
5879;BME280;2965;42.640;23.370;2023-03-16T11:21:16;94128.59;;;2.87;100.00
5879;BME280;2965;42.640;23.370;2023-03-16T11:23:47;94125.81;;;2.98;100.00
5879;BME280;2965;42.640;23.370;2023-03-16T11:26:38;94128.78;;;3.03;100.00
5879;BME280;2965;42.640;23.370;2023-03-16T11:32:05;94121.81;;;2.86;100.00
5879;BME280;2965;42.640;23.370;2023-03-16T11:34:35;94131.84;;;2.89;100.00
5879;BME280;2965;42.640;23.370;2023-03-16T11:37:23;94128.31;;;2.90;100.00
5879;BME280;2965;42.640;23.370;2023-03-16T11:40:00;94125.22;;;3.04;100.00
5879;BME280;2965;42.640;23.370;2023-03-16T11:43:02;94126.91;;;2.95;100.00
5879;BME280;2965;42.640;23.370;2023-03-16T11:45:37;94127.50;;;2.89;100.00
5879;BME280;2965;42.640;23.370;2023-03-16T11:51:31;94132.94;;;2.86;100.00
5879;BME280;2965;42.640;23.370;2023-03-16T12:02:16;94142.00;;;2.72;100.00
5879;BME280;2965;42.640;23.370;2023-03-16T12:18:00;94140.72;;;2.59;100.00
5879;BME280;2965;42.640;23.370;2023-03-16T12:20:57;94140.81;;;2.67;100.00
5879;BME280;2965;42.640;23.370;2023-03-16T12:23:28;94141.81;;;2.56;100.00
5879;BME280;2965;42.640;23.370;2023-03-16T12:25:56;94148.53;;;2.49;100.00
5879;BME280;2965;42.640;23.370;2023-03-16T12:28:25;94152.44;;;2.53;100.00
5879;BME280;2965;42.640;23.370;2023-03-16T12:31:06;94150.97;;;2.50;100.00
5879;BME280;2965;42.640;23.370;2023-03-16T12:33:57;94152.72;;;2.50;100.00
5879;BME280;2965;42.640;23.370;2023-03-16T12:36:53;94146.69;;;2.59;100.00
5879;BME280;2965;42.640;23.370;2023-03-16T12:42:05;94156.28;;;2.49;100.00
5879;BME280;2965;42.640;23.370;2023-03-16T12:45:14;94158.16;;;2.47;100.00
5879;BME280;2965;42.640;23.370;2023-03-16T12:50:13;94169.31;;;2.47;100.00
5879;BME280;2965;42.640;23.370;2023-03-16T12:52:45;94159.97;;;2.37;100.00
5879;BME280;2965;42.640;23.370;2023-03-16T12:55:28;94168.00;;;2.34;100.00
5879;BME280;2965;42.640;23.370;2023-03-16T12:58:06;94178.91;;;2.27;100.00
5879;BME280;2965;42.640;23.370;2023-03-16T13:00:35;94166.56;;;2.21;100.00
5879;BME280;2965;42.640;23.370;2023-03-16T13:03:04;94172.13;;;2.17;100.00
5879;BME280;2965;42.640;23.370;2023-03-16T13:05:32;94170.81;;;2.03;100.00
5879;BME280;2965;42.640;23.370;2023-03-16T13:10:29;94173.31;;;1.95;100.00
5879;BME280;2965;42.640;23.370;2023-03-16T13:13:06;94161.63;;;1.91;100.00
5879;BME280;2965;42.640;23.370;2023-03-16T13:15:32;94165.69;;;1.84;100.00
5879;BME280;2965;42.640;23.370;2023-03-16T13:20:58;94167.63;;;1.82;100.00
5879;BME280;2965;42.640;23.370;2023-03-16T13:28:37;94171.94;;;1.91;100.00
5879;BME280;2965;42.640;23.370;2023-03-16T13:31:05;94170.28;;;2.09;100.00
5879;BME280;2965;42.640;23.370;2023-03-16T13:33:45;94171.63;;;2.13;100.00
5879;BME280;2965;42.640;23.370;2023-03-16T13:36:12;94173.50;;;2.11;100.00
5879;BME280;2965;42.640;23.370;2023-03-16T13:38:38;94174.47;;;2.10;100.00
5879;BME280;2965;42.640;23.370;2023-03-16T13:41:10;94184.66;;;2.12;100.00
5879;BME280;2965;42.640;23.370;2023-03-16T13:43:47;94187.06;;;2.23;100.00
5879;BME280;2965;42.640;23.370;2023-03-16T13:46:18;94184.91;;;2.18;100.00
5879;BME280;2965;42.640;23.370;2023-03-16T13:48:48;94193.88;;;2.14;100.00
5879;BME280;2965;42.640;23.370;2023-03-16T13:51:16;94182.44;;;2.17;100.00
5879;BME280;2965;42.640;23.370;2023-03-16T13:53:43;94189.81;;;2.21;100.00
5879;BME280;2965;42.640;23.370;2023-03-16T13:56:14;94187.06;;;2.23;100.00
5879;BME280;2965;42.640;23.370;2023-03-16T13:58:44;94185.97;;;2.25;100.00
5879;BME280;2965;42.640;23.370;2023-03-16T14:01:30;94192.19;;;2.33;100.00
5879;BME280;2965;42.640;23.370;2023-03-16T14:04:01;94193.81;;;2.34;100.00
5879;BME280;2965;42.640;23.370;2023-03-16T14:06:33;94203.59;;;2.30;100.00
5879;BME280;2965;42.640;23.370;2023-03-16T14:09:05;94198.19;;;2.23;100.00
5879;BME280;2965;42.640;23.370;2023-03-16T14:11:32;94205.00;;;2.24;100.00
5879;BME280;2965;42.640;23.370;2023-03-16T14:13:59;94208.25;;;2.26;100.00
5879;BME280;2965;42.640;23.370;2023-03-16T14:16:28;94200.78;;;2.23;100.00
5879;BME280;2965;42.640;23.370;2023-03-16T14:19:15;94201.75;;;2.22;100.00
5879;BME280;2965;42.640;23.370;2023-03-16T14:21:43;94213.69;;;2.23;100.00
5879;BME280;2965;42.640;23.370;2023-03-16T14:24:32;94219.13;;;2.20;100.00
5879;BME280;2965;42.640;23.370;2023-03-16T14:27:18;94220.25;;;2.08;100.00
5879;BME280;2965;42.640;23.370;2023-03-16T14:29:44;94226.34;;;2.07;100.00
5879;BME280;2965;42.640;23.370;2023-03-16T14:32:27;94224.84;;;2.14;100.00
5879;BME280;2965;42.640;23.370;2023-03-16T14:35:30;94227.84;;;1.90;100.00
5879;BME280;2965;42.640;23.370;2023-03-16T14:37:56;94238.19;;;1.81;100.00
5879;BME280;2965;42.640;23.370;2023-03-16T14:40:51;94223.00;;;1.87;100.00
5879;BME280;2965;42.640;23.370;2023-03-16T14:43:16;94226.38;;;1.88;100.00
5879;BME280;2965;42.640;23.370;2023-03-16T14:45:42;94238.06;;;1.92;100.00
5879;BME280;2965;42.640;23.370;2023-03-16T14:48:18;94224.91;;;1.75;100.00
5879;BME280;2965;42.640;23.370;2023-03-16T14:50:48;94240.38;;;1.75;100.00
5879;BME280;2965;42.640;23.370;2023-03-16T14:53:18;94234.66;;;1.72;100.00
5879;BME280;2965;42.640;23.370;2023-03-16T14:55:43;94233.59;;;1.65;100.00
5879;BME280;2965;42.640;23.370;2023-03-16T14:58:09;94238.22;;;1.61;100.00
5879;BME280;2965;42.640;23.370;2023-03-16T15:00:34;94244.19;;;1.62;100.00
5879;BME280;2965;42.640;23.370;2023-03-16T15:03:05;94242.25;;;1.54;100.00
5879;BME280;2965;42.640;23.370;2023-03-16T15:05:36;94237.09;;;1.54;100.00
5879;BME280;2965;42.640;23.370;2023-03-16T15:08:04;94239.56;;;1.65;100.00
5879;BME280;2965;42.640;23.370;2023-03-16T15:10:32;94242.53;;;1.70;100.00
5879;BME280;2965;42.640;23.370;2023-03-16T15:12:59;94258.16;;;1.69;100.00
5879;BME280;2965;42.640;23.370;2023-03-16T15:15:38;94253.41;;;1.74;100.00
5879;BME280;2965;42.640;23.370;2023-03-16T15:18:06;94254.22;;;1.74;100.00
5879;BME280;2965;42.640;23.370;2023-03-16T15:20:37;94253.13;;;1.67;100.00
5879;BME280;2965;42.640;23.370;2023-03-16T15:23:03;94262.91;;;1.73;100.00
5879;BME280;2965;42.640;23.370;2023-03-16T15:25:52;94261.81;;;1.66;100.00
5879;BME280;2965;42.640;23.370;2023-03-16T15:28:25;94265.88;;;1.59;100.00
5879;BME280;2965;42.640;23.370;2023-03-16T15:30:54;94266.97;;;1.57;100.00
5879;BME280;2965;42.640;23.370;2023-03-16T15:33:21;94267.53;;;1.60;100.00
5879;BME280;2965;42.640;23.370;2023-03-16T15:35:48;94275.38;;;1.59;100.00
5879;BME280;2965;42.640;23.370;2023-03-16T15:38:30;94271.59;;;1.53;100.00
5879;BME280;2965;42.640;23.370;2023-03-16T15:40:56;94274.84;;;1.55;100.00
5879;BME280;2965;42.640;23.370;2023-03-16T15:43:24;94284.47;;;1.53;100.00
5879;BME280;2965;42.640;23.370;2023-03-16T15:45:51;94272.38;;;1.54;100.00
5879;BME280;2965;42.640;23.370;2023-03-16T15:48:18;94275.13;;;1.52;100.00
5879;BME280;2965;42.640;23.370;2023-03-16T15:53:40;94281.34;;;1.59;100.00
5879;BME280;2965;42.640;23.370;2023-03-16T15:56:12;94295.47;;;1.55;100.00
5879;BME280;2965;42.640;23.370;2023-03-16T15:58:43;94293.56;;;1.47;100.00
5879;BME280;2965;42.640;23.370;2023-03-16T16:01:20;94292.44;;;1.40;100.00
5879;BME280;2965;42.640;23.370;2023-03-16T16:03:46;94295.19;;;1.39;100.00
5879;BME280;2965;42.640;23.370;2023-03-16T16:06:13;94302.22;;;1.37;100.00
5879;BME280;2965;42.640;23.370;2023-03-16T16:08:38;94296.38;;;1.35;100.00
5879;BME280;2965;42.640;23.370;2023-03-16T16:11:12;94310.63;;;1.39;100.00
5879;BME280;2965;42.640;23.370;2023-03-16T16:13:38;94314.97;;;1.38;100.00
5879;BME280;2965;42.640;23.370;2023-03-16T16:16:03;94309.28;;;1.35;100.00
5879;BME280;2965;42.640;23.370;2023-03-16T16:18:33;94326.63;;;1.33;100.00
5879;BME280;2965;42.640;23.370;2023-03-16T16:21:04;94316.31;;;1.33;100.00
5879;BME280;2965;42.640;23.370;2023-03-16T16:23:30;94314.97;;;1.29;100.00
5879;BME280;2965;42.640;23.370;2023-03-16T16:26:02;94321.03;;;1.27;100.00
5879;BME280;2965;42.640;23.370;2023-03-16T16:28:30;94320.13;;;1.29;100.00
5879;BME280;2965;42.640;23.370;2023-03-16T16:30:56;94327.16;;;1.26;100.00
5879;BME280;2965;42.640;23.370;2023-03-16T16:35:50;94335.31;;;1.32;100.00
5879;BME280;2965;42.640;23.370;2023-03-16T16:38:16;94339.50;;;1.33;100.00
5879;BME280;2965;42.640;23.370;2023-03-16T16:40:41;94338.59;;;1.34;100.00
5879;BME280;2965;42.640;23.370;2023-03-16T16:43:36;94340.44;;;1.32;100.00
5879;BME280;2965;42.640;23.370;2023-03-16T16:46:00;94346.41;;;1.32;100.00
5879;BME280;2965;42.640;23.370;2023-03-16T16:48:37;94344.00;;;1.31;100.00
5879;BME280;2965;42.640;23.370;2023-03-16T16:51:05;94350.75;;;1.32;100.00
5879;BME280;2965;42.640;23.370;2023-03-16T16:53:34;94352.38;;;1.33;100.00
5879;BME280;2965;42.640;23.370;2023-03-16T16:56:00;94352.28;;;1.34;100.00
5879;BME280;2965;42.640;23.370;2023-03-16T16:58:26;94353.75;;;1.37;100.00
5879;BME280;2965;42.640;23.370;2023-03-16T17:00:54;94352.44;;;1.42;100.00
5879;BME280;2965;42.640;23.370;2023-03-16T17:03:26;94367.84;;;1.33;100.00
5879;BME280;2965;42.640;23.370;2023-03-16T17:05:54;94370.44;;;1.33;100.00
5879;BME280;2965;42.640;23.370;2023-03-16T17:08:20;94373.00;;;1.33;100.00
5879;BME280;2965;42.640;23.370;2023-03-16T17:10:47;94373.00;;;1.33;100.00
5879;BME280;2965;42.640;23.370;2023-03-16T17:13:24;94368.16;;;1.39;100.00
5879;BME280;2965;42.640;23.370;2023-03-16T17:15:51;94360.44;;;1.39;100.00
5879;BME280;2965;42.640;23.370;2023-03-16T17:18:17;94373.59;;;1.46;100.00
5879;BME280;2965;42.640;23.370;2023-03-16T17:20:43;94377.69;;;1.58;100.00
5879;BME280;2965;42.640;23.370;2023-03-16T17:23:29;94380.94;;;1.50;100.00
5879;BME280;2965;42.640;23.370;2023-03-16T17:25:58;94389.94;;;1.56;100.00
5879;BME280;2965;42.640;23.370;2023-03-16T17:28:25;94392.91;;;1.51;100.00
5879;BME280;2965;42.640;23.370;2023-03-16T17:30:52;94388.31;;;1.55;100.00
5879;BME280;2965;42.640;23.370;2023-03-16T17:33:18;94393.47;;;1.55;100.00
5879;BME280;2965;42.640;23.370;2023-03-16T17:35:45;94399.69;;;1.52;100.00
5879;BME280;2965;42.640;23.370;2023-03-16T17:38:22;94400.75;;;1.50;100.00
5879;BME280;2965;42.640;23.370;2023-03-16T17:40:48;94402.25;;;1.52;100.00
5879;BME280;2965;42.640;23.370;2023-03-16T17:43:27;94413.13;;;1.56;100.00
5879;BME280;2965;42.640;23.370;2023-03-16T17:45:53;94412.19;;;1.57;100.00
5879;BME280;2965;42.640;23.370;2023-03-16T17:48:22;94410.56;;;1.56;100.00
5879;BME280;2965;42.640;23.370;2023-03-16T17:50:49;94418.41;;;1.55;100.00
5879;BME280;2965;42.640;23.370;2023-03-16T17:53:17;94405.13;;;1.59;100.00
5879;BME280;2965;42.640;23.370;2023-03-16T17:55:44;94422.25;;;1.60;100.00
5879;BME280;2965;42.640;23.370;2023-03-16T17:58:28;94426.31;;;1.63;100.00
5879;BME280;2965;42.640;23.370;2023-03-16T18:00:55;94422.25;;;1.60;100.00
5879;BME280;2965;42.640;23.370;2023-03-16T18:03:23;94419.78;;;1.59;100.00
5879;BME280;2965;42.640;23.370;2023-03-16T18:05:50;94419.50;;;1.52;100.00
5879;BME280;2965;42.640;23.370;2023-03-16T18:10:49;94417.88;;;1.51;100.00
5879;BME280;2965;42.640;23.370;2023-03-16T18:13:23;94418.78;;;1.50;100.00
5879;BME280;2965;42.640;23.370;2023-03-16T18:15:51;94426.53;;;1.50;100.00
5879;BME280;2965;42.640;23.370;2023-03-16T18:18:23;94426.41;;;1.51;100.00
5879;BME280;2965;42.640;23.370;2023-03-16T18:20:50;94423.28;;;1.48;100.00
5879;BME280;2965;42.640;23.370;2023-03-16T18:23:24;94425.84;;;1.48;100.00
5879;BME280;2965;42.640;23.370;2023-03-16T18:25:52;94428.19;;;1.51;100.00
5879;BME280;2965;42.640;23.370;2023-03-16T18:28:19;94423.69;;;1.53;100.00
5879;BME280;2965;42.640;23.370;2023-03-16T18:30:47;94426.81;;;1.47;100.00
5879;BME280;2965;42.640;23.370;2023-03-16T18:33:19;94432.22;;;1.44;100.00
5879;BME280;2965;42.640;23.370;2023-03-16T18:35:46;94434.63;;;1.36;100.00
5879;BME280;2965;42.640;23.370;2023-03-16T18:38:32;94423.75;;;1.32;100.00
5879;BME280;2965;42.640;23.370;2023-03-16T18:40:59;94424.84;;;1.30;100.00
5879;BME280;2965;42.640;23.370;2023-03-16T18:43:26;94423.22;;;1.29;100.00
5879;BME280;2965;42.640;23.370;2023-03-16T18:45:52;94423.59;;;1.24;100.00
5879;BME280;2965;42.640;23.370;2023-03-16T18:48:28;94424.22;;;1.16;100.00
5879;BME280;2965;42.640;23.370;2023-03-16T18:50:54;94430.72;;;1.11;100.00
5879;BME280;2965;42.640;23.370;2023-03-16T18:53:20;94435.09;;;1.20;100.00
5879;BME280;2965;42.640;23.370;2023-03-16T18:55:47;94426.25;;;1.13;100.00
5879;BME280;2965;42.640;23.370;2023-03-16T18:58:19;94434.34;;;1.08;100.00
5879;BME280;2965;42.640;23.370;2023-03-16T19:00:57;94431.25;;;1.14;100.00
5879;BME280;2965;42.640;23.370;2023-03-16T19:03:26;94435.03;;;1.10;100.00
5879;BME280;2965;42.640;23.370;2023-03-16T19:05:53;94433.13;;;1.03;100.00
5879;BME280;2965;42.640;23.370;2023-03-16T19:08:20;94438.56;;;1.09;100.00
5879;BME280;2965;42.640;23.370;2023-03-16T19:10:56;94437.19;;;1.05;100.00
5879;BME280;2965;42.640;23.370;2023-03-16T19:13:24;94437.75;;;1.09;100.00
